Time;durP1;ratioP1;P1;durP2;ratioP2;P2;SDS_P1;SDS_P2;PMS_P1;PMS_P2;Temp;Humidity;BMP_temperature;BMP_pressure;BME280_temperature;BME280_humidity;BME280_pressure;Samples;Min_cycle;Max_cycle;Signal;HPM_P1;HPM_P2
2022/02/06 00:00:01;;;;;;;4.43;1.57;;;0.80;99.90;;;;;;5031917;28;20415;-78
2022/02/06 00:02:30;;;;;;;4.87;1.53;;;;;;;;;;5032530;28;20409;-78
2022/02/06 00:04:57;;;;;;;5.67;1.90;;;;;;;;;;5033876;28;20778;-78
2022/02/06 00:07:23;;;;;;;4.97;1.83;;;;;;;;;;5033764;28;20429;-78
2022/02/06 00:09:49;;;;;;;2.40;1.60;;;;;;;;;;5033730;28;20420;-78
2022/02/06 00:12:15;;;;;;;4.57;1.77;;;0.90;99.90;;;;;;5036377;28;20931;-78
2022/02/06 00:14:41;;;;;;;6.77;2.07;;;;;;;;;;5036132;28;20547;-78
2022/02/06 00:17:08;;;;;;;2.03;1.40;;;0.90;99.90;;;;;;5037640;28;20853;-78
2022/02/06 00:19:35;;;;;;;2.60;1.90;;;0.80;99.90;;;;;;5036328;28;20656;-78
2022/02/06 00:22:06;;;;;;;4.43;1.77;;;;;;;;;;5037234;28;20417;-79
2022/02/06 00:24:41;;;;;;;4.63;1.90;;;;;;;;;;5035826;28;20408;-78
2022/02/06 00:27:12;;;;;;;4.10;1.73;;;;;;;;;;5038369;28;20385;-78
2022/02/06 00:29:52;;;;;;;5.13;1.70;;;0.70;99.90;;;;;;5044512;28;20393;-79
2022/02/06 00:43:27;;;;;;;3.13;1.77;;;;;;;;;;5039582;28;20432;-79
2022/02/06 00:45:53;;;;;;;2.60;2.10;;;0.70;99.90;;;;;;5036777;28;20858;-79
2022/02/06 00:48:24;;;;;;;4.27;1.53;;;0.90;99.90;;;;;;5038378;28;20436;-78
2022/02/06 00:50:59;;;;;;;3.90;1.73;;;0.80;99.90;;;;;;5037810;28;20405;-78
2022/02/06 00:53:25;;;;;;;4.33;1.97;;;0.70;99.90;;;;;;5038072;28;20988;-78
2022/02/06 00:55:51;;;;;;;6.77;2.20;;;0.90;99.90;;;;;;5036283;28;20421;-78
2022/02/06 00:58:16;;;;;;;2.90;1.53;;;1.00;99.90;;;;;;5037804;28;20205;-79
2022/02/06 01:00:42;;;;;;;2.57;1.60;;;0.80;99.90;;;;;;5038435;28;20170;-79
2022/02/06 01:03:08;;;;;;;3.23;1.20;;;;;;;;;;5038499;28;20297;-79
2022/02/06 01:05:34;;;;;;;5.80;1.57;;;0.80;99.90;;;;;;5038563;28;20312;-78
2022/02/06 01:08:00;;;;;;;3.27;1.53;;;;;;;;;;5037552;28;20473;-78
2022/02/06 01:10:27;;;;;;;6.67;1.90;;;;;;;;;;5039425;28;20182;-78
2022/02/06 01:13:10;;;;;;;3.03;1.60;;;1.10;99.90;;;;;;5038585;28;20477;-78
2022/02/06 01:15:36;;;;;;;2.60;1.53;;;0.90;99.90;;;;;;5037415;28;20428;-78
2022/02/06 01:18:06;;;;;;;6.93;1.80;;;;;;;;;;5039120;28;20437;-78
2022/02/06 01:20:41;;;;;;;3.63;1.30;;;;;;;;;;5037742;28;20178;-78
2022/02/06 01:23:21;;;;;;;2.67;1.37;;;;;;;;;;5040512;28;20419;-78
2022/02/06 01:25:55;;;;;;;6.37;2.17;;;;;;;;;;5042497;28;20417;-78
2022/02/06 01:28:29;;;;;;;6.53;1.63;;;1.10;99.90;;;;;;5040893;28;20432;-78
2022/02/06 01:31:04;;;;;;;3.43;1.90;;;;;;;;;;5036473;28;20875;-78
2022/02/06 01:33:36;;;;;;;2.93;1.73;;;;;;;;;;5036614;28;20448;-78
2022/02/06 01:41:21;;;;;;;2.23;1.73;;;1.10;99.90;;;;;;5035759;28;20504;-78
2022/02/06 01:43:53;;;;;;;5.73;2.00;;;;;;;;;;5034196;28;20420;-78
2022/02/06 02:03:09;;;;;;;28.63;10.33;;;1.10;99.90;;;;;;5036581;28;20439;-78
2022/02/06 02:05:56;;;;;;;5.90;1.50;;;;;;;;;;5036591;28;20424;-78
2022/02/06 02:12:15;;;;;;;2.10;1.40;;;0.90;99.90;;;;;;5035683;28;20459;-78
2022/02/06 02:14:17;;;;;;;5.17;1.70;;;;;;;;;;5038857;28;20974;-78
2022/02/06 02:28:27;;;;;;;3.50;1.73;;;0.80;99.90;;;;;;5035357;28;20435;-78
2022/02/06 02:30:46;;;;;;;1.60;1.20;;;;;;;;;;5036849;28;20814;-78
2022/02/06 02:46:35;;;;;;;5.60;1.97;;;1.10;99.90;;;;;;5034360;28;20771;-78
2022/02/06 02:49:02;;;;;;;4.77;1.50;;;1.10;99.90;;;;;;5034240;28;20432;-78
2022/02/06 02:51:33;;;;;;;7.70;2.33;;;;;;;;;;5034801;28;20474;-78
2022/02/06 02:54:05;;;;;;;3.63;1.53;;;1.00;99.90;;;;;;5034308;28;20448;-78
2022/02/06 02:56:46;;;;;;;2.57;1.20;;;1.10;99.90;;;;;;5034361;28;20393;-78
2022/02/06 02:59:34;;;;;;;1.47;1.00;;;;;;;;;;5032548;28;20435;-78
2022/02/06 03:02:02;;;;;;;1.90;1.33;;;1.00;99.90;;;;;;5032481;28;20463;-78
2022/02/06 03:04:28;;;;;;;2.97;1.13;;;;;;;;;;5033784;28;20416;-78
2022/02/06 03:06:54;;;;;;;2.60;1.37;;;1.20;99.90;;;;;;5033679;28;20409;-78
2022/02/06 03:09:22;;;;;;;2.63;1.63;;;;;;;;;;5034349;28;20499;-78
2022/02/06 03:11:47;;;;;;;2.10;1.60;;;1.10;99.90;;;;;;5032986;28;20194;-78
2022/02/06 03:14:19;;;;;;;3.80;1.53;;;;;;;;;;5033227;28;20463;-78
2022/02/06 03:17:01;;;;;;;6.83;1.80;;;;;;;;;;5034120;28;20557;-78
2022/02/06 03:19:29;;;;;;;2.10;1.53;;;;;;;;;;5033184;28;20826;-78
2022/02/06 03:21:55;;;;;;;3.10;1.90;;;;;;;;;;5034275;28;20760;-78
2022/02/06 03:24:24;;;;;;;1.60;1.47;;;;;;;;;;5033793;28;20405;-78
2022/02/06 03:26:52;;;;;;;2.13;1.17;;;1.00;99.90;;;;;;5033781;28;20405;-78
2022/02/06 03:29:21;;;;;;;3.50;1.57;;;1.00;99.90;;;;;;5034136;28;20440;-78
2022/02/06 03:31:47;;;;;;;7.43;1.60;;;;;;;;;;5033026;28;20756;-78
2022/02/06 03:34:13;;;;;;;4.43;1.20;;;;;;;;;;5034100;28;21026;-78
2022/02/06 03:36:39;;;;;;;3.17;1.30;;;1.10;99.90;;;;;;5033593;28;20397;-78
2022/02/06 03:39:06;;;;;;;3.10;1.40;;;1.10;99.90;;;;;;5034023;28;20491;-78
2022/02/06 03:41:43;;;;;;;4.50;1.40;;;;;;;;;;5033938;28;20640;-78
2022/02/06 03:44:20;;;;;;;2.07;1.30;;;1.10;99.90;;;;;;5032886;28;20408;-78
2022/02/06 03:46:58;;;;;;;4.70;1.43;;;;;;;;;;5036714;28;20889;-78
2022/02/06 03:49:34;;;;;;;2.83;1.40;;;1.20;99.90;;;;;;5038015;28;20429;-78
2022/02/06 03:51:59;;;;;;;0.97;0.87;;;1.10;99.90;;;;;;5036688;28;20404;-78
2022/02/06 03:54:25;;;;;;;7.63;1.50;;;1.30;99.90;;;;;;5037861;28;20457;-78
2022/02/06 03:56:53;;;;;;;2.40;1.10;;;1.20;99.90;;;;;;5036250;28;20573;-78
2022/02/06 03:59:19;;;;;;;3.43;1.60;;;;;;;;;;5037354;28;20587;-78
2022/02/06 04:01:44;;;;;;;7.03;1.23;;;1.50;99.90;;;;;;5037640;28;20397;-78
2022/02/06 04:04:10;;;;;;;3.27;1.57;;;1.20;99.90;;;;;;5045293;28;20178;-78
2022/02/06 04:06:36;;;;;;;5.50;1.20;;;1.30;99.90;;;;;;5041507;28;20181;-78
2022/02/06 04:09:08;;;;;;;3.73;1.50;;;;;;;;;;5037844;28;20206;-78
2022/02/06 04:11:46;;;;;;;3.30;1.80;;;;;;;;;;5038248;28;20190;-78
2022/02/06 04:16:57;;;;;;;2.60;1.20;;;;;;;;;;5044961;28;20753;-78
2022/02/06 04:19:26;;;;;;;5.70;1.13;;;1.60;99.90;;;;;;5036737;28;20440;-78
2022/02/06 04:21:57;;;;;;;2.83;1.20;;;1.70;99.90;;;;;;5037182;28;20503;-78
2022/02/06 04:24:24;;;;;;;3.70;1.20;;;1.60;99.90;;;;;;5036210;28;20405;-78
2022/02/06 04:26:52;;;;;;;3.17;1.30;;;1.60;99.90;;;;;;5037036;28;20507;-78
2022/02/06 04:29:18;;;;;;;1.43;1.00;;;1.60;99.90;;;;;;5035417;28;20471;-78
2022/02/06 04:31:45;;;;;;;2.60;1.47;;;1.90;99.90;;;;;;5035307;28;20417;-79
2022/02/06 04:34:11;;;;;;;2.33;1.37;;;3.20;99.90;;;;;;5035715;28;20470;-78
2022/02/06 04:36:46;;;;;;;4.77;1.37;;;;;;;;;;5035269;28;20417;-78
2022/02/06 05:32:01;;;;;;;1.63;1.43;;;1.90;99.90;;;;;;5044747;28;20409;-78
2022/02/06 05:34:23;;;;;;;7.53;2.07;;;1.70;99.90;;;;;;5035676;28;20464;-78
2022/02/06 05:36:49;;;;;;;1.20;1.10;;;;;;;;;;5034637;28;20951;-78
2022/02/06 05:39:15;;;;;;;1.83;1.13;;;;;;;;;;5035632;28;20190;-78
2022/02/06 05:41:40;;;;;;;3.37;1.40;;;1.80;99.90;;;;;;5036108;28;20209;-78
2022/02/06 05:44:06;;;;;;;3.47;1.37;;;2.00;99.90;;;;;;5034972;28;20463;-78
2022/02/06 05:46:33;;;;;;;2.70;1.50;;;;;;;;;;5035496;28;20179;-78
2022/02/06 05:48:58;;;;;;;2.20;1.30;;;1.90;99.90;;;;;;5033349;28;20239;-77
2022/02/06 05:51:24;;;;;;;2.70;1.30;;;1.90;99.90;;;;;;5034973;28;20452;-78
2022/02/06 05:53:50;;;;;;;3.70;1.57;;;;;;;;;;5033467;28;20217;-78
2022/02/06 05:56:19;;;;;;;4.27;1.63;;;1.80;99.90;;;;;;5033208;28;20220;-78
2022/02/06 05:58:44;;;;;;;1.70;1.03;;;2.00;99.90;;;;;;5034395;28;20656;-77
2022/02/06 06:01:11;;;;;;;0.87;0.87;;;2.10;99.90;;;;;;5033045;28;20437;-77
2022/02/06 06:03:37;;;;;;;3.13;1.13;;;2.10;99.90;;;;;;5034486;28;20182;-77
2022/02/06 06:06:03;;;;;;;2.20;1.33;;;2.10;99.90;;;;;;5033015;28;20937;-77
2022/02/06 06:08:29;;;;;;;1.30;1.10;;;2.10;99.90;;;;;;5034327;28;20429;-77
2022/02/06 06:10:54;;;;;;;7.10;1.37;;;2.00;99.90;;;;;;5034490;28;20661;-78
2022/02/06 06:13:20;;;;;;;2.40;1.00;;;2.10;99.90;;;;;;5035225;28;20186;-78
2022/02/06 06:15:46;;;;;;;2.70;1.10;;;2.00;99.90;;;;;;5034520;28;20517;-77
2022/02/06 06:18:13;;;;;;;2.17;1.20;;;2.10;99.90;;;;;;5032900;28;20194;-78
2022/02/06 06:20:42;;;;;;;1.53;0.93;;;2.10;99.90;;;;;;5033084;28;20182;-78
2022/02/06 06:23:07;;;;;;;1.83;1.50;;;2.20;99.90;;;;;;5033153;28;20425;-78
2022/02/06 06:25:38;;;;;;;3.67;1.60;;;2.20;99.90;;;;;;5034233;28;20439;-78
2022/02/06 06:28:04;;;;;;;3.03;1.10;;;2.20;99.90;;;;;;5034287;28;20202;-78
2022/02/06 06:30:30;;;;;;;3.63;1.17;;;2.60;99.90;;;;;;5033418;28;20451;-79
2022/02/06 06:32:56;;;;;;;6.27;1.40;;;2.20;99.90;;;;;;5035616;28;20559;-78
2022/02/06 06:35:21;;;;;;;4.07;1.13;;;2.20;99.90;;;;;;5034614;28;20196;-78
2022/02/06 06:37:49;;;;;;;4.90;1.20;;;2.20;99.90;;;;;;5034295;28;20198;-78
2022/02/06 06:40:15;;;;;;;4.13;1.77;;;2.60;99.90;;;;;;5032579;28;20268;-78
2022/02/06 06:42:41;;;;;;;2.27;1.63;;;;;;;;;;5032975;28;20417;-78
2022/02/06 06:45:08;;;;;;;1.70;1.60;;;2.20;99.90;;;;;;5035345;28;20409;-78
2022/02/06 06:47:33;;;;;;;1.93;1.10;;;2.20;99.90;;;;;;5035150;28;20512;-78
2022/02/06 06:49:59;;;;;;;2.43;1.50;;;2.20;99.90;;;;;;5034337;28;20421;-78
2022/02/06 06:52:25;;;;;;;1.47;1.10;;;2.20;99.90;;;;;;5035518;28;20603;-77
2022/02/06 06:54:59;;;;;;;2.90;1.70;;;2.20;99.90;;;;;;5033572;28;20193;-77
2022/02/06 06:57:51;;;;;;;4.33;1.70;;;2.90;99.90;;;;;;5033947;28;20273;-77
2022/02/06 07:03:18;;;;;;;3.83;1.40;;;2.20;99.90;;;;;;5058437;28;20438;-79
2022/02/06 07:05:44;;;;;;;5.40;1.50;;;2.20;99.90;;;;;;5057862;28;20219;-78
2022/02/06 07:08:09;;;;;;;2.77;1.50;;;2.30;99.90;;;;;;5044599;28;20220;-79
2022/02/06 07:10:35;;;;;;;3.50;1.63;;;2.20;99.90;;;;;;5034308;28;20558;-78
2022/02/06 07:13:00;;;;;;;3.27;2.00;;;2.30;99.90;;;;;;5035514;28;20209;-78
2022/02/06 07:15:26;;;;;;;7.53;3.37;;;2.30;99.90;;;;;;5037174;28;20174;-78
2022/02/06 07:17:52;;;;;;;1.27;1.17;;;;;;;;;;5035109;28;20225;-78
2022/02/06 07:20:18;;;;;;;2.10;1.67;;;2.40;99.90;;;;;;5034399;28;20576;-78
2022/02/06 07:22:45;;;;;;;3.93;1.90;;;2.50;99.90;;;;;;5032355;28;20178;-78
2022/02/06 07:25:11;;;;;;;5.13;1.80;;;2.40;99.90;;;;;;5034488;28;20257;-78
2022/02/06 07:27:40;;;;;;;3.23;2.20;;;2.50;99.90;;;;;;5035267;28;20218;-79
2022/02/06 07:30:07;;;;;;;3.30;1.37;;;2.50;99.90;;;;;;5038265;28;20178;-79
2022/02/06 07:32:37;;;;;;;1.20;0.87;;;2.50;99.90;;;;;;5036493;28;20461;-79
2022/02/06 07:35:06;;;;;;;1.70;1.60;;;2.50;99.90;;;;;;5037184;28;20417;-79
2022/02/06 07:37:32;;;;;;;4.50;1.50;;;2.50;99.90;;;;;;5037976;28;20429;-79
2022/02/06 07:39:57;;;;;;;1.93;1.00;;;2.50;99.90;;;;;;5037635;28;20455;-78
2022/02/06 07:42:24;;;;;;;3.57;1.30;;;2.50;99.90;;;;;;5037266;28;20170;-78
2022/02/06 07:44:50;;;;;;;2.67;1.43;;;2.50;99.90;;;;;;5036628;28;20174;-78
2022/02/06 07:47:23;;;;;;;2.47;1.10;;;2.50;99.90;;;;;;5036430;28;20421;-78
2022/02/06 07:49:52;;;;;;;2.90;1.13;;;2.80;99.90;;;;;;5036957;28;20378;-78
2022/02/06 07:52:20;;;;;;;2.37;1.40;;;2.50;99.90;;;;;;5035258;28;20469;-78
2022/02/06 07:54:46;;;;;;;3.77;1.37;;;2.50;99.90;;;;;;5036740;28;20435;-78
2022/02/06 07:57:12;;;;;;;2.63;1.33;;;2.60;99.90;;;;;;5034606;28;20428;-78
2022/02/06 07:59:38;;;;;;;2.97;1.37;;;2.50;99.90;;;;;;5035756;28;20408;-78
2022/02/06 08:02:05;;;;;;;1.80;1.60;;;2.60;99.90;;;;;;5035064;28;20539;-78
2022/02/06 08:04:31;;;;;;;1.03;0.80;;;2.70;99.90;;;;;;5033981;28;20284;-78
2022/02/06 08:06:57;;;;;;;1.10;1.00;;;2.80;99.90;;;;;;5037891;28;20917;-79
2022/02/06 08:12:03;;;;;;;3.13;1.43;;;2.90;99.90;;;;;;5037241;28;20251;-78
2022/02/06 08:17:13;;;;;;;3.83;1.60;;;3.60;99.90;;;;;;5037778;28;20815;-78
2022/02/06 08:19:39;;;;;;;2.97;1.47;;;3.70;99.90;;;;;;5037630;28;20914;-78
2022/02/06 08:22:04;;;;;;;2.10;1.50;;;4.00;99.90;;;;;;5035506;28;20213;-78
2022/02/06 08:24:30;;;;;;;2.00;1.67;;;4.40;99.90;;;;;;5037041;28;20236;-79
2022/02/06 08:26:56;;;;;;;1.30;1.20;;;4.60;99.90;;;;;;5037613;28;20285;-79
2022/02/06 08:29:21;;;;;;;3.83;1.60;;;4.90;99.90;;;;;;5039238;28;20253;-79
2022/02/06 08:31:47;;;;;;;4.87;2.47;;;4.90;99.90;;;;;;5039679;28;20204;-79
2022/02/06 08:34:12;;;;;;;5.07;1.63;;;5.10;99.90;;;;;;5040788;28;20197;-78
2022/02/06 08:36:38;;;;;;;2.60;1.30;;;5.10;99.90;;;;;;5042884;28;20205;-79
2022/02/06 08:39:04;;;;;;;1.87;1.30;;;4.60;99.90;;;;;;5041855;28;20200;-79
2022/02/06 08:41:30;;;;;;;3.53;2.17;;;4.30;99.90;;;;;;5042076;28;20648;-78
2022/02/06 08:43:56;;;;;;;1.80;1.33;;;4.20;99.90;;;;;;5041144;28;20178;-79
2022/02/06 08:46:21;;;;;;;2.50;1.77;;;4.40;99.90;;;;;;5040846;28;20637;-78
2022/02/06 08:48:47;;;;;;;2.20;1.20;;;4.50;99.90;;;;;;5041135;28;20285;-78
2022/02/06 08:51:12;;;;;;;2.60;1.00;;;4.80;99.90;;;;;;5040749;28;20171;-78
2022/02/06 08:53:38;;;;;;;1.67;1.40;;;5.10;99.90;;;;;;5041737;28;20221;-78
2022/02/06 08:56:04;;;;;;;2.97;0.93;;;5.30;99.90;;;;;;5042235;28;20170;-79
2022/02/06 08:58:30;;;;;;;1.63;1.20;;;5.50;99.90;;;;;;5042294;28;20194;-79
2022/02/06 09:00:57;;;;;;;1.20;1.00;;;5.50;99.90;;;;;;5041512;28;20203;-79
2022/02/06 09:03:23;;;;;;;3.53;1.30;;;5.30;99.90;;;;;;5043691;28;20248;-79
2022/02/06 09:05:48;;;;;;;1.50;1.10;;;4.70;99.90;;;;;;5043785;28;20687;-79
2022/02/06 09:08:14;;;;;;;3.87;1.40;;;4.60;99.90;;;;;;5043536;28;20199;-78
2022/02/06 09:10:40;;;;;;;3.40;1.47;;;4.40;99.90;;;;;;5043119;28;20207;-78
2022/02/06 09:13:07;;;;;;;5.03;2.50;;;4.30;99.90;;;;;;5035028;28;20207;-78
2022/02/06 09:15:32;;;;;;;6.80;2.57;;;4.30;99.90;;;;;;5036031;28;20623;-78
2022/02/06 09:17:58;;;;;;;3.20;1.53;;;4.50;99.90;;;;;;5038965;28;20202;-78
2022/02/06 09:20:24;;;;;;;5.13;1.40;;;4.50;99.90;;;;;;5041500;28;20174;-79
2022/02/06 09:22:50;;;;;;;2.63;1.27;;;4.20;99.90;;;;;;5040841;28;20175;-79
2022/02/06 09:25:16;;;;;;;1.93;1.40;;;4.00;99.90;;;;;;5037074;28;20190;-78
2022/02/06 09:27:43;;;;;;;5.90;3.30;;;4.00;99.90;;;;;;5037719;28;20202;-78
2022/02/06 09:30:17;;;;;;;3.17;1.53;;;4.10;99.90;;;;;;5037587;28;20179;-78
2022/02/06 09:35:10;;;;;;;5.20;1.80;;;4.20;99.90;;;;;;5037367;28;20254;-78
2022/02/06 09:37:35;;;;;;;4.67;1.80;;;4.20;99.90;;;;;;5036364;28;20203;-78
2022/02/06 09:40:03;;;;;;;6.00;3.33;;;4.20;99.90;;;;;;5036454;28;20178;-78
2022/02/06 09:42:29;;;;;;;1.80;1.43;;;4.40;99.90;;;;;;5036360;28;20172;-79
2022/02/06 09:44:56;;;;;;;3.43;1.70;;;4.60;99.90;;;;;;5038623;28;20351;-78
2022/02/06 09:47:24;;;;;;;1.43;1.30;;;5.30;99.90;;;;;;5038351;28;20297;-79
2022/02/06 09:49:51;;;;;;;2.33;1.60;;;5.30;99.90;;;;;;5040184;28;20694;-79
2022/02/06 09:52:28;;;;;;;2.07;1.37;;;5.30;99.90;;;;;;5040884;28;20170;-79
2022/02/06 09:55:03;;;;;;;3.00;1.87;;;5.20;99.90;;;;;;5041209;28;20156;-78
2022/02/06 09:57:40;;;;;;;11.13;3.73;;;5.50;99.90;;;;;;5040761;28;20265;-79
2022/02/06 10:00:07;;;;;;;5.40;2.30;;;5.50;99.90;;;;;;5047873;28;20185;-78
2022/02/06 10:02:35;;;;;;;6.50;3.40;;;5.40;99.90;;;;;;5043452;28;20221;-78
2022/02/06 10:05:02;;;;;;;3.67;1.60;;;5.80;99.90;;;;;;5038575;28;20172;-79
2022/02/06 10:07:41;;;;;;;1.47;1.00;;;5.60;99.90;;;;;;5039213;28;20186;-78
2022/02/06 10:10:08;;;;;;;2.27;1.10;;;5.20;99.90;;;;;;5039408;28;20175;-78
2022/02/06 10:12:40;;;;;;;3.37;1.00;;;5.10;99.90;;;;;;5038335;28;20664;-78
2022/02/06 10:15:11;;;;;;;2.60;1.47;;;5.10;99.90;;;;;;5035684;28;20174;-78
2022/02/06 10:17:37;;;;;;;2.53;1.10;;;5.30;99.90;;;;;;5038463;28;20194;-78
2022/02/06 10:20:18;;;;;;;3.87;1.20;;;5.30;99.90;;;;;;5037496;28;20181;-78
2022/02/06 10:25:16;;;;;;;2.87;2.00;;;5.20;99.90;;;;;;5037191;28;20161;-78
2022/02/06 10:28:11;;;;;;;3.27;1.30;;;5.20;99.90;;;;;;5036314;28;20276;-78
2022/02/06 10:30:50;;;;;;;2.17;1.30;;;5.20;99.90;;;;;;5038559;28;20167;-78
2022/02/06 10:33:21;;;;;;;2.13;1.37;;;4.90;99.90;;;;;;5044123;28;20191;-78
2022/02/06 10:35:50;;;;;;;2.67;0.97;;;4.80;99.90;;;;;;5059007;28;20167;-78
2022/02/06 10:38:16;;;;;;;2.50;1.20;;;4.70;99.90;;;;;;5055280;28;20240;-79
2022/02/06 10:40:44;;;;;;;3.10;1.63;;;4.80;99.90;;;;;;5054550;28;20659;-78
2022/02/06 10:43:11;;;;;;;4.73;1.43;;;4.80;99.90;;;;;;5052674;28;20269;-78
2022/02/06 10:45:38;;;;;;;2.27;1.30;;;4.80;99.90;;;;;;5064174;28;20184;-79
2022/02/06 10:48:18;;;;;;;4.40;1.50;;;4.60;99.90;;;;;;5065458;28;20197;-78
2022/02/06 10:50:44;;;;;;;4.10;1.50;;;4.60;99.90;;;;;;5054825;28;20166;-79
2022/02/06 10:53:12;;;;;;;3.43;2.03;;;4.60;99.90;;;;;;5056466;28;20209;-78
2022/02/06 10:56:11;;;;;;;3.20;1.47;;;4.60;99.90;;;;;;5055435;28;20209;-78
2022/02/06 10:58:37;;;;;;;1.20;1.10;;;4.60;99.90;;;;;;5055011;28;20209;-78
2022/02/06 11:01:25;;;;;;;2.20;1.23;;;4.50;99.90;;;;;;5055250;28;20245;-78
2022/02/06 11:04:14;;;;;;;6.07;1.90;;;4.50;99.90;;;;;;5059736;28;20204;-78
2022/02/06 11:06:45;;;;;;;3.77;1.93;;;4.50;99.90;;;;;;5057784;28;20197;-78
2022/02/06 11:09:28;;;;;;;3.87;1.97;;;4.40;99.90;;;;;;5058258;28;20202;-78
2022/02/06 11:12:09;;;;;;;3.97;3.50;;;4.30;99.90;;;;;;5056722;28;20196;-78
2022/02/06 11:14:38;;;;;;;2.67;1.70;;;4.40;99.90;;;;;;5059386;28;20193;-78
2022/02/06 11:17:18;;;;;;;3.03;1.43;;;4.30;99.90;;;;;;5055609;28;20240;-78
2022/02/06 11:20:06;;;;;;;3.30;2.13;;;4.20;99.90;;;;;;5061490;28;20169;-78
2022/02/06 11:22:33;;;;;;;2.83;2.33;;;4.30;99.90;;;;;;5058434;28;20230;-78
2022/02/06 11:24:59;;;;;;;2.40;1.60;;;4.40;99.90;;;;;;5041216;28;20187;-78
2022/02/06 11:27:27;;;;;;;2.00;1.80;;;4.30;99.90;;;;;;5058603;28;20198;-78
2022/02/06 11:29:54;;;;;;;1.80;1.30;;;4.30;99.90;;;;;;5057474;28;20178;-78
2022/02/06 11:32:19;;;;;;;2.60;1.77;;;4.20;99.90;;;;;;5057517;28;20188;-78
2022/02/06 11:34:45;;;;;;;6.17;2.70;;;4.20;99.90;;;;;;5057680;28;20244;-78
2022/02/06 11:46:09;;;;;;;3.50;1.60;;;4.40;99.90;;;;;;5058317;28;20192;-78
2022/02/06 11:48:38;;;;;;;2.50;1.27;;;4.30;99.90;;;;;;5060075;28;20203;-79
2022/02/06 11:51:03;;;;;;;2.43;1.57;;;4.40;99.90;;;;;;5060811;28;20173;-79
2022/02/06 11:53:38;;;;;;;1.77;1.20;;;4.40;99.90;;;;;;5066287;28;20215;-78
2022/02/06 11:56:34;;;;;;;2.47;1.47;;;4.50;99.90;;;;;;5069769;28;20205;-78
2022/02/06 11:59:13;;;;;;;3.13;1.83;;;4.40;99.90;;;;;;5063939;28;20213;-79
2022/02/06 12:01:42;;;;;;;1.73;1.60;;;4.50;99.90;;;;;;5062169;28;20177;-78
2022/02/06 12:04:07;;;;;;;3.43;1.33;;;4.50;99.90;;;;;;5056247;28;20185;-78
2022/02/06 12:06:39;;;;;;;2.03;1.50;;;4.50;99.90;;;;;;5059946;28;20170;-78
2022/02/06 12:09:05;;;;;;;1.30;1.07;;;4.30;99.90;;;;;;5061093;28;20619;-78
2022/02/06 12:11:32;;;;;;;4.20;1.53;;;4.30;99.90;;;;;;5058113;28;20200;-78
2022/02/06 12:14:06;;;;;;;3.63;1.57;;;4.40;99.90;;;;;;5060845;28;20729;-78
2022/02/06 12:16:40;;;;;;;3.97;1.90;;;4.40;99.90;;;;;;5060224;28;20196;-78
2022/02/06 12:19:26;;;;;;;1.67;1.30;;;4.40;99.90;;;;;;5059429;28;20198;-78
2022/02/06 12:21:53;;;;;;;3.53;1.90;;;4.40;99.90;;;;;;5057928;28;20167;-78
2022/02/06 12:24:38;;;;;;;3.57;1.50;;;4.40;99.90;;;;;;5056776;28;20221;-79
2022/02/06 12:27:20;;;;;;;4.20;1.67;;;4.30;99.90;;;;;;5062506;28;20177;-78
2022/02/06 12:29:52;;;;;;;2.23;1.73;;;4.40;99.90;;;;;;5062723;28;20186;-78
2022/02/06 12:32:43;;;;;;;1.03;1.00;;;4.30;99.90;;;;;;5060999;28;20182;-78
2022/02/06 12:37:55;;;;;;;1.37;1.00;;;4.30;99.90;;;;;;5062282;28;20283;-78
2022/02/06 12:40:24;;;;;;;4.70;1.40;;;4.40;99.90;;;;;;5062264;28;20177;-79
2022/02/06 12:42:58;;;;;;;15.83;5.73;;;4.30;99.90;;;;;;5060927;28;20173;-78
2022/02/06 12:45:25;;;;;;;5.33;2.30;;;4.40;99.90;;;;;;5060570;28;20211;-79
2022/02/06 12:47:55;;;;;;;3.00;1.90;;;4.40;99.90;;;;;;5061407;28;20236;-79
2022/02/06 12:50:29;;;;;;;2.63;1.80;;;4.30;99.90;;;;;;5062386;28;20201;-78
2022/02/06 12:52:56;;;;;;;1.10;1.00;;;4.40;99.90;;;;;;5061004;28;20623;-78
2022/02/06 12:55:27;;;;;;;1.77;1.57;;;4.30;99.90;;;;;;5061208;28;20161;-78
2022/02/06 12:57:54;;;;;;;2.40;1.70;;;4.30;99.90;;;;;;5060126;28;20205;-78
2022/02/06 13:00:42;;;;;;;2.27;1.70;;;4.40;99.90;;;;;;5060772;28;20661;-78
2022/02/06 13:03:36;;;;;;;3.23;1.30;;;4.30;99.90;;;;;;5061191;28;20181;-78
2022/02/06 13:06:08;;;;;;;2.60;1.30;;;4.40;99.90;;;;;;5059965;28;20178;-78
2022/02/06 13:08:37;;;;;;;3.67;1.60;;;4.40;99.90;;;;;;5060053;28;20201;-78
2022/02/06 13:11:08;;;;;;;2.77;2.10;;;4.30;99.90;;;;;;5061261;28;20277;-78
2022/02/06 13:13:43;;;;;;;2.40;1.70;;;4.30;99.90;;;;;;5060531;28;20201;-80
2022/02/06 13:24:14;;;;;;;3.80;2.50;;;4.50;99.90;;;;;;5078141;28;20161;-79
2022/02/06 13:31:55;;;;;;;4.00;1.83;;;4.50;99.90;;;;;;5079652;28;20313;-78
2022/02/06 13:34:48;;;;;;;4.73;2.67;;;4.60;99.90;;;;;;5077242;28;20200;-78
2022/02/06 13:37:13;;;;;;;2.57;2.10;;;4.70;99.90;;;;;;5079089;28;20227;-78
2022/02/06 13:39:49;;;;;;;4.17;2.30;;;4.60;99.90;;;;;;5080682;28;20146;-78
2022/02/06 13:42:16;;;;;;;4.27;1.77;;;4.70;99.90;;;;;;5079971;28;20709;-78
2022/02/06 13:44:42;;;;;;;14.57;7.67;;;4.70;99.90;;;;;;5080279;28;20173;-78
2022/02/06 13:47:10;;;;;;;2.40;1.70;;;4.70;99.90;;;;;;5077257;28;20603;-77
2022/02/06 13:49:45;;;;;;;12.40;5.13;;;4.70;99.90;;;;;;5077277;28;20674;-78
2022/02/06 13:52:13;;;;;;;9.77;4.77;;;4.70;99.90;;;;;;5078339;28;20165;-78
2022/02/06 13:54:43;;;;;;;5.90;3.57;;;4.60;99.90;;;;;;5076601;28;20224;-77
2022/02/06 13:57:09;;;;;;;8.87;5.10;;;4.60;99.90;;;;;;5077990;28;20272;-78
2022/02/06 13:59:39;;;;;;;4.13;3.30;;;4.60;99.90;;;;;;5078025;28;20166;-78
2022/02/06 14:02:08;;;;;;;2.80;2.33;;;4.60;99.90;;;;;;5079800;28;20527;-79
2022/02/06 14:04:39;;;;;;;3.17;1.80;;;4.60;99.90;;;;;;5076132;28;20184;-78
2022/02/06 14:07:13;;;;;;;4.30;2.90;;;4.60;99.90;;;;;;5078547;28;20520;-78
2022/02/06 14:12:10;;;;;;;2.20;1.60;;;4.50;99.90;;;;;;5078399;28;20196;-78
2022/02/06 14:14:46;;;;;;;3.37;2.23;;;4.50;99.90;;;;;;5077357;28;20207;-78
2022/02/06 14:17:27;;;;;;;2.00;1.80;;;4.40;99.90;;;;;;5077577;28;20245;-78
2022/02/06 14:19:55;;;;;;;3.40;1.60;;;4.50;99.90;;;;;;5078777;28;20559;-78
2022/02/06 14:22:29;;;;;;;3.80;1.47;;;4.50;99.90;;;;;;5077833;28;20173;-78
2022/02/06 14:25:04;;;;;;;2.03;1.50;;;4.50;99.90;;;;;;5079007;28;20197;-78
2022/02/06 14:27:44;;;;;;;1.93;1.73;;;4.50;99.90;;;;;;5078291;28;20192;-78
2022/02/06 14:30:17;;;;;;;2.37;1.30;;;4.60;99.90;;;;;;5076771;28;20502;-78
2022/02/06 14:33:05;;;;;;;2.13;1.67;;;4.60;99.90;;;;;;5076028;28;20658;-78
2022/02/06 14:35:59;;;;;;;2.70;1.60;;;4.70;99.90;;;;;;5077080;28;20490;-78
2022/02/06 14:38:34;;;;;;;2.00;1.60;;;4.70;99.90;;;;;;5078305;28;20188;-78
2022/02/06 14:44:00;;;;;;;4.00;2.47;;;4.70;99.90;;;;;;5080450;28;20200;-78
2022/02/06 14:46:28;;;;;;;5.30;2.97;;;4.70;99.90;;;;;;5077544;28;20172;-78
2022/02/06 14:48:54;;;;;;;10.83;5.70;;;4.80;99.90;;;;;;5078775;28;20196;-78
2022/02/06 14:51:21;;;;;;;6.40;3.67;;;4.80;99.90;;;;;;5078435;28;20211;-78
2022/02/06 14:53:46;;;;;;;9.30;4.97;;;4.70;99.90;;;;;;5078187;28;20568;-78
2022/02/06 14:56:13;;;;;;;2.97;1.90;;;4.80;99.90;;;;;;5077497;28;20180;-78
2022/02/06 14:58:40;;;;;;;9.40;4.77;;;4.80;99.90;;;;;;5078175;28;20196;-78
2022/02/06 15:01:06;;;;;;;21.37;8.37;;;4.80;99.90;;;;;;5078912;28;20273;-78
2022/02/06 15:03:32;;;;;;;16.80;7.40;;;4.90;99.90;;;;;;5079141;28;20188;-78
2022/02/06 15:05:58;;;;;;;11.83;4.90;;;4.90;99.90;;;;;;5079296;28;20176;-78
2022/02/06 15:08:24;;;;;;;12.00;4.57;;;4.90;99.90;;;;;;5076668;28;20208;-78
2022/02/06 15:10:50;;;;;;;22.20;7.03;;;4.90;99.90;;;;;;5075963;28;20267;-78
2022/02/06 15:13:17;;;;;;;14.00;5.63;;;4.90;99.90;;;;;;5078516;28;20279;-78
2022/02/06 15:15:49;;;;;;;5.03;2.97;;;5.00;99.90;;;;;;5078178;28;20168;-78
2022/02/06 15:18:34;;;;;;;2.63;1.73;;;5.00;99.90;;;;;;5078661;28;20284;-78
2022/02/06 15:21:00;;;;;;;2.23;2.03;;;5.00;99.90;;;;;;5078839;28;20164;-78
2022/02/06 15:23:26;;;;;;;5.03;1.87;;;5.00;99.90;;;;;;5077652;28;20186;-78
2022/02/06 15:25:54;;;;;;;1.80;1.33;;;4.90;99.90;;;;;;5076732;28;20516;-79
2022/02/06 15:28:19;;;;;;;1.23;1.13;;;4.80;99.90;;;;;;5076019;28;20196;-78
2022/02/06 15:30:45;;;;;;;2.97;1.70;;;4.70;99.90;;;;;;5080546;28;20199;-78
2022/02/06 15:33:11;;;;;;;1.80;1.57;;;4.60;99.90;;;;;;5083298;28;20196;-77
2022/02/06 15:35:38;;;;;;;1.43;1.03;;;4.50;99.90;;;;;;5080728;28;20653;-77
2022/02/06 15:38:06;;;;;;;4.50;2.83;;;4.50;99.90;;;;;;5075935;28;20184;-78
2022/02/06 15:40:33;;;;;;;3.10;1.60;;;4.40;99.90;;;;;;5066346;28;20182;-77
2022/02/06 15:42:59;;;;;;;1.60;1.50;;;4.40;99.90;;;;;;5075016;28;20188;-78
2022/02/06 15:45:25;;;;;;;1.83;1.37;;;4.30;99.90;;;;;;5072142;28;20639;-77
2022/02/06 15:47:51;;;;;;;1.83;1.73;;;4.20;99.90;;;;;;5057763;28;20201;-77
2022/02/06 15:50:17;;;;;;;2.20;1.57;;;4.20;99.90;;;;;;5057268;28;20544;-78
2022/02/06 15:52:42;;;;;;;2.20;1.67;;;4.30;99.90;;;;;;5056833;28;20184;-77
2022/02/06 15:55:08;;;;;;;2.83;1.40;;;4.10;99.90;;;;;;5057648;28;20174;-77
2022/02/06 15:57:34;;;;;;;1.60;1.50;;;4.10;99.90;;;;;;5055811;28;20197;-78
2022/02/06 16:00:00;;;;;;;3.90;1.90;;;4.00;99.90;;;;;;5056342;28;20909;-78
2022/02/06 16:02:25;;;;;;;2.00;1.80;;;3.90;99.90;;;;;;5057666;28;20601;-77